Time;durP1;ratioP1;P1;durP2;ratioP2;P2;SDS_P1;SDS_P2;PMS_P1;PMS_P2;Temp;Humidity;BMP_temperature;BMP_pressure;BME280_temperature;BME280_humidity;BME280_pressure;Samples;Min_cycle;Max_cycle;Signal;HPM_P1;HPM_P2
2022/01/20 00:03:46;;;;;;;10.13;1.50;;;;;;;2.57;85.10;101156.16;6062391;28;20057;-74
2022/01/20 00:26:20;;;;;;;11.50;1.48;;;;;;;2.54;82.47;101138.00;6070882;28;20125;-74
2022/01/20 00:29:23;;;;;;;12.85;1.63;;;;;;;2.44;81.81;101136.81;6074001;28;20112;-74
2022/01/20 00:32:23;;;;;;;12.52;1.80;;;;;;;2.41;81.66;101135.22;6074026;28;20060;-74
2022/01/20 00:35:23;;;;;;;10.43;2.20;;;;;;;2.59;80.55;101144.66;6071721;28;20091;-74
2022/01/20 00:38:18;;;;;;;13.35;1.42;;;;;;;2.57;81.00;101145.69;6075220;28;20076;-74
2022/01/20 00:41:15;;;;;;;15.15;1.80;;;;;;;2.51;80.78;101146.84;6073268;28;20396;-74
2022/01/20 00:44:10;;;;;;;10.15;1.80;;;;;;;2.40;81.34;101149.22;6070019;28;20037;-74
2022/01/20 00:47:05;;;;;;;9.27;1.70;;;;;;;2.26;81.82;101157.81;6077284;28;20484;-74
2022/01/20 00:50:01;;;;;;;12.23;1.85;;;;;;;2.18;83.11;101169.59;6067000;28;20041;-74
2022/01/20 00:52:56;;;;;;;17.10;2.22;;;;;;;2.16;82.99;101163.63;6074902;28;20384;-73
2022/01/20 00:55:52;;;;;;;13.90;1.80;;;;;;;2.12;82.99;101172.56;6072208;28;20045;-74
2022/01/20 00:58:47;;;;;;;9.20;1.63;;;;;;;2.12;83.42;101170.78;6073978;28;20032;-74
2022/01/20 01:01:42;;;;;;;7.13;1.53;;;;;;;2.16;84.57;101167.09;6074027;28;20272;-74
2022/01/20 01:04:39;;;;;;;16.02;2.55;;;;;;;2.20;85.02;101165.16;6073439;28;20037;-74
2022/01/20 01:07:45;;;;;;;13.10;1.85;;;;;;;2.20;85.49;101155.53;6062241;28;20084;-74
2022/01/20 01:10:44;;;;;;;11.52;1.80;;;;;;;2.22;85.84;101161.53;6073161;28;20123;-74
2022/01/20 01:13:39;;;;;;;21.15;2.78;;;;;;;2.33;86.37;101163.56;6074242;28;20164;-74
2022/01/20 01:20:01;;;;;;;14.10;2.10;;;;;;;2.30;86.81;101159.34;6071432;28;20037;-74
2022/01/20 01:20:13;;;;;;;12.50;2.10;;;;;;;2.19;87.31;101156.47;6074138;28;20080;-74
2022/01/20 01:23:09;;;;;;;18.52;2.60;;;;;;;2.28;88.10;101168.22;6073917;28;20064;-74
2022/01/20 01:26:06;;;;;;;12.77;3.03;;;;;;;2.25;87.68;101161.38;6067992;28;20484;-73
2022/01/20 01:29:10;;;;;;;17.25;2.78;;;;;;;2.26;87.75;101152.56;6060217;28;20029;-74
2022/01/20 01:32:08;;;;;;;10.02;2.33;;;;;;;2.26;88.44;101155.19;6067884;28;20469;-74
2022/01/20 01:35:06;;;;;;;12.20;1.65;;;;;;;2.33;88.19;101138.25;6073039;28;20473;-73
2022/01/20 01:40:59;;;;;;;25.40;2.47;;;;;;;2.35;88.20;101141.63;6072769;28;20038;-74
2022/01/20 01:43:56;;;;;;;10.07;2.13;;;;;;;2.38;88.09;101136.22;6073223;28;20049;-74
2022/01/20 01:46:52;;;;;;;15.57;2.63;;;;;;;2.36;87.88;101132.00;6059112;28;20040;-73
2022/01/20 01:49:47;;;;;;;15.90;2.03;;;;;;;2.40;88.37;101128.28;6057016;28;20493;-73
2022/01/20 01:52:43;;;;;;;21.07;2.73;;;;;;;2.54;87.28;101135.38;6072891;28;20068;-73
2022/01/20 01:55:38;;;;;;;11.55;2.25;;;;;;;2.62;87.21;101133.19;6072478;28;20041;-73
2022/01/20 01:58:34;;;;;;;18.77;2.97;;;;;;;2.73;86.01;101141.28;6073561;28;20025;-74
2022/01/20 02:01:33;;;;;;;25.17;2.55;;;;;;;2.75;85.60;101121.94;6071886;28;20044;-73
2022/01/20 02:04:28;;;;;;;14.60;2.08;;;;;;;2.75;85.84;101121.94;6072771;28;20038;-74
2022/01/20 02:20:14;;;;;;;14.98;2.13;;;;;;;2.64;85.73;101108.59;6071706;28;20029;-73
2022/01/20 02:23:09;;;;;;;15.13;2.25;;;;;;;2.60;85.68;101119.34;6073327;28;20041;-73
2022/01/20 02:26:05;;;;;;;21.57;2.03;;;;;;;2.58;85.68;101108.13;6072360;28;20041;-73
2022/01/20 02:29:00;;;;;;;15.67;1.53;;;;;;;2.58;86.55;101115.97;6070859;28;20037;-73
2022/01/20 02:31:58;;;;;;;11.70;2.07;;;;;;;2.56;86.51;101102.94;6072658;28;20275;-73
2022/01/20 02:34:53;;;;;;;11.38;2.15;;;;;;;2.59;86.64;101104.56;6059164;28;20526;-73
2022/01/20 02:37:54;;;;;;;10.37;1.70;;;;;;;2.56;87.31;101109.94;6072908;28;20030;-74
2022/01/20 02:47:23;;;;;;;16.60;2.10;;;;;;;2.55;87.46;101097.81;6066400;28;19948;-74
2022/01/20 02:50:18;;;;;;;13.27;2.20;;;;;;;2.52;88.21;101090.13;6073133;28;20057;-74
2022/01/20 02:53:14;;;;;;;9.50;2.10;;;;;;;2.54;87.90;101075.19;6075280;28;20122;-73
2022/01/20 02:56:09;;;;;;;16.30;2.77;;;;;;;2.62;87.13;101065.97;6077107;28;20056;-73
2022/01/20 02:59:04;;;;;;;8.53;1.50;;;;;;;2.65;86.90;101083.28;6077153;28;20108;-73
2022/01/20 03:02:02;;;;;;;12.57;2.60;;;;;;;2.66;87.47;101082.34;6075065;28;20045;-73
2022/01/20 03:04:57;;;;;;;16.48;1.65;;;;;;;2.70;87.21;101065.53;6075877;28;20025;-74
2022/01/20 03:07:53;;;;;;;12.57;1.90;;;;;;;2.74;88.01;101069.66;6076500;28;20032;-73
2022/01/20 03:10:48;;;;;;;17.30;1.80;;;;;;;2.77;87.21;101059.03;6064104;28;20798;-72
2022/01/20 03:13:43;;;;;;;16.60;1.77;;;;;;;2.78;86.96;101060.69;6076265;28;20052;-72
2022/01/20 03:16:39;;;;;;;22.00;2.63;;;;;;;2.76;87.76;101058.19;6075877;28;20306;-72
2022/01/20 03:19:34;;;;;;;17.23;1.70;;;;;;;2.78;87.98;101065.94;6075955;28;20044;-72
2022/01/20 03:22:29;;;;;;;12.40;2.17;;;;;;;2.77;87.50;101059.84;6075061;28;20331;-72
2022/01/20 03:25:25;;;;;;;7.57;2.50;;;;;;;2.80;87.36;101069.31;6071245;28;20283;-72
2022/01/20 03:28:20;;;;;;;17.40;1.95;;;;;;;2.77;88.54;101079.97;6076526;28;20083;-72
2022/01/20 03:31:16;;;;;;;15.40;2.63;;;;;;;2.71;88.67;101086.41;6075231;28;20046;-72
2022/01/20 03:34:11;;;;;;;20.70;3.33;;;;;;;2.69;88.75;101069.09;6076013;28;20421;-73
2022/01/20 03:37:07;;;;;;;8.17;1.60;;;;;;;2.61;89.16;101050.38;6076251;28;20038;-73
2022/01/20 03:40:02;;;;;;;18.90;1.87;;;;;;;2.54;89.53;101062.94;6075307;28;20530;-73
2022/01/20 03:42:58;;;;;;;11.13;2.38;;;;;;;2.42;90.07;101059.22;6076352;28;20396;-72
2022/01/20 03:45:56;;;;;;;9.03;1.60;;;;;;;2.28;91.73;101060.94;6075412;28;20037;-71
2022/01/20 03:48:54;;;;;;;10.10;1.65;;;;;;;2.20;92.27;101053.50;6057696;28;20045;-70
2022/01/20 03:51:49;;;;;;;5.70;1.73;;;;;;;2.10;92.84;101070.63;6073546;28;20140;-71
2022/01/20 03:54:44;;;;;;;10.57;2.60;;;;;;;2.08;93.11;101059.41;6074794;28;20045;-71
2022/01/20 03:57:40;;;;;;;9.97;1.83;;;;;;;2.10;93.56;101054.94;6075621;28;20080;-71
2022/01/20 04:00:35;;;;;;;13.10;1.80;;;;;;;2.09;93.13;101060.28;6074244;28;20037;-71
2022/01/20 04:03:30;;;;;;;11.87;2.03;;;;;;;2.10;94.08;101072.41;6074859;28;20531;-71
2022/01/20 04:06:27;;;;;;;7.33;1.60;;;;;;;2.18;93.60;101076.28;6074392;28;20029;-71
2022/01/20 04:09:23;;;;;;;4.10;1.35;;;;;;;2.17;93.07;101079.84;6074460;28;20025;-71
2022/01/20 04:12:18;;;;;;;7.40;1.63;;;;;;;2.22;93.03;101085.66;6073023;28;20037;-70
2022/01/20 04:15:16;;;;;;;5.07;1.10;;;;;;;2.18;92.48;101086.75;6067329;28;20041;-70
2022/01/20 04:18:13;;;;;;;13.60;1.33;;;;;;;2.16;92.62;101082.53;6070568;28;20091;-70
2022/01/20 04:21:09;;;;;;;6.13;1.45;;;;;;;2.11;93.34;101085.41;6073905;28;20113;-70
2022/01/20 04:24:05;;;;;;;5.93;1.23;;;;;;;2.10;93.22;101099.41;6070941;28;20043;-70
2022/01/20 04:27:00;;;;;;;6.40;1.25;;;;;;;2.09;92.65;101141.34;6071167;28;20102;-70
2022/01/20 04:29:56;;;;;;;8.18;1.40;;;;;;;2.00;93.51;101126.13;6074509;28;20029;-70
2022/01/20 04:32:51;;;;;;;5.47;1.43;;;;;;;1.70;93.51;101112.91;6067538;28;20488;-70
2022/01/20 04:35:46;;;;;;;2.63;1.00;;;;;;;1.51;93.16;101125.22;6072595;28;20041;-70
2022/01/20 04:38:42;;;;;;;4.63;0.97;;;;;;;1.33;93.53;101120.97;6073993;28;20119;-70
2022/01/20 04:41:37;;;;;;;6.17;0.90;;;;;;;1.36;93.95;101136.47;6068249;28;20739;-71
2022/01/20 04:44:54;;;;;;;3.10;1.10;;;;;;;1.37;93.72;101143.38;6061348;28;20272;-70
2022/01/20 04:48:00;;;;;;;5.45;1.10;;;;;;;1.39;93.64;101144.13;6073274;28;20631;-70
2022/01/20 04:57:24;;;;;;;6.20;1.42;;;;;;;1.68;93.63;101175.72;6072145;28;20065;-69
2022/01/20 05:00:19;;;;;;;4.13;1.07;;;;;;;1.57;93.80;101192.88;6071617;28;20548;-69
2022/01/20 05:03:15;;;;;;;6.18;1.45;;;;;;;1.20;92.93;101178.16;6073891;28;20025;-69
2022/01/20 05:06:10;;;;;;;2.55;0.70;;;;;;;1.11;92.67;101166.41;6073575;28;20033;-70
2022/01/20 05:09:06;;;;;;;5.25;1.00;;;;;;;1.11;93.23;101176.84;6057674;28;20034;-70
2022/01/20 05:12:06;;;;;;;9.53;1.07;;;;;;;1.13;93.47;101187.22;6072837;28;20041;-70
2022/01/20 05:15:01;;;;;;;6.60;1.10;;;;;;;1.15;93.49;101178.41;6061547;28;20466;-71
2022/01/20 05:17:58;;;;;;;9.90;1.60;;;;;;;1.24;93.10;101187.56;6067701;28;20027;-71
2022/01/20 05:20:53;;;;;;;4.93;1.05;;;;;;;1.34;92.80;101195.75;6073070;28;20036;-72
2022/01/20 05:23:48;;;;;;;15.23;1.23;;;;;;;1.37;92.65;101190.41;6063641;28;20038;-72
2022/01/20 05:26:44;;;;;;;3.55;1.10;;;;;;;1.39;92.15;101199.00;6073367;28;20404;-72
2022/01/20 05:29:39;;;;;;;6.27;1.23;;;;;;;1.37;91.94;101217.38;6070654;28;20057;-71
2022/01/20 05:32:34;;;;;;;6.53;1.13;;;;;;;1.36;91.53;101220.06;6072916;28;20507;-72
2022/01/20 05:35:30;;;;;;;4.07;1.10;;;;;;;1.35;91.03;101219.22;6073667;28;20281;-71
2022/01/20 05:38:25;;;;;;;8.48;1.00;;;;;;;1.36;91.14;101225.28;6058871;28;20076;-72
2022/01/20 05:41:20;;;;;;;4.90;1.20;;;;;;;1.36;90.08;101239.19;6072321;28;20366;-72
2022/01/20 05:44:15;;;;;;;4.17;1.13;;;;;;;1.38;89.61;101236.50;6068989;28;20050;-71
2022/01/20 05:47:12;;;;;;;7.50;0.93;;;;;;;1.32;88.71;101250.72;6073311;28;20045;-72
2022/01/20 05:50:08;;;;;;;8.73;1.17;;;;;;;1.31;88.63;101245.53;6069866;28;20030;-71
2022/01/20 05:53:05;;;;;;;17.48;1.42;;;;;;;1.33;87.65;101247.19;6069438;28;20091;-72
2022/01/20 05:56:00;;;;;;;8.10;1.85;;;;;;;1.37;87.52;101250.47;6072158;28;20481;-72
2022/01/20 05:58:56;;;;;;;8.37;1.37;;;;;;;1.08;88.94;101252.75;6072712;28;20037;-71
2022/01/20 06:01:55;;;;;;;4.33;0.80;;;;;;;0.85;90.15;101257.31;6071012;28;20640;-72
2022/01/20 06:04:50;;;;;;;8.65;1.42;;;;;;;0.78;90.45;101264.59;6063679;28;20046;-72
2022/01/20 06:07:45;;;;;;;16.43;1.77;;;;;;;0.83;89.73;101270.47;6072850;28;20022;-72
2022/01/20 06:10:41;;;;;;;5.00;1.13;;;;;;;0.75;89.33;101282.16;6050091;28;20091;-72
2022/01/20 06:13:36;;;;;;;12.88;2.10;;;;;;;0.62;89.79;101281.03;6071882;28;20110;-72
2022/01/20 06:16:32;;;;;;;6.47;1.45;;;;;;;0.64;88.54;101307.91;6059486;28;20531;-72
2022/01/20 06:19:27;;;;;;;9.27;1.10;;;;;;;0.62;87.87;101310.59;6049202;28;20645;-72
2022/01/20 06:22:22;;;;;;;15.90;1.03;;;;;;;0.62;87.37;101310.59;6068787;28;20288;-72
2022/01/20 06:25:18;;;;;;;6.20;0.93;;;;;;;0.61;87.42;101321.94;6073105;28;20052;-72
2022/01/20 06:28:14;;;;;;;3.30;1.00;;;;;;;0.53;87.80;101314.44;6077848;28;20503;-73
2022/01/20 06:31:10;;;;;;;7.50;1.35;;;;;;;0.49;86.58;101304.22;6063083;28;20280;-72
2022/01/20 06:34:05;;;;;;;8.15;1.45;;;;;;;0.51;87.00;101312.81;6076988;28;20373;-73
2022/01/20 06:37:00;;;;;;;5.07;0.87;;;;;;;0.44;86.22;101319.19;6076943;28;20044;-73
2022/01/20 06:39:56;;;;;;;14.27;1.67;;;;;;;0.43;86.14;101321.00;6076739;28;20271;-72
2022/01/20 06:42:51;;;;;;;8.87;1.40;;;;;;;0.38;85.99;101324.72;6077060;28;20279;-73
2022/01/20 06:45:46;;;;;;;7.53;0.98;;;;;;;0.34;85.48;101330.97;6074192;28;20060;-73
2022/01/20 06:48:42;;;;;;;14.13;1.40;;;;;;;0.29;85.88;101344.22;6069564;28;20117;-73
2022/01/20 06:51:37;;;;;;;11.07;1.47;;;;;;;0.24;85.64;101346.16;6070238;28;20400;-73
2022/01/20 06:54:34;;;;;;;9.07;1.60;;;;;;;0.21;85.77;101350.66;6075650;28;20040;-72
2022/01/20 06:57:29;;;;;;;9.68;1.70;;;;;;;0.22;85.68;101362.78;6077566;28;20025;-73
2022/01/20 07:00:25;;;;;;;7.60;1.33;;;;;;;0.20;86.20;101359.38;6070445;28;20044;-73
2022/01/20 07:03:20;;;;;;;4.85;1.33;;;;;;;0.21;85.79;101374.13;6070035;28;20119;-72
2022/01/20 07:06:15;;;;;;;10.80;1.47;;;;;;;0.25;86.15;101383.50;6072324;28;20026;-72
2022/01/20 07:09:11;;;;;;;8.50;1.60;;;;;;;0.22;86.86;101396.69;6077513;28;20087;-72
2022/01/20 07:12:06;;;;;;;7.90;1.33;;;;;;;0.19;87.28;101394.22;6076353;28;20124;-72
2022/01/20 07:15:03;;;;;;;11.38;1.30;;;;;;;0.22;87.82;101409.72;6071625;28;20033;-72
2022/01/20 07:17:58;;;;;;;6.38;1.40;;;;;;;0.18;88.27;101400.31;6076491;28;20385;-72
2022/01/20 07:20:53;;;;;;;9.87;1.50;;;;;;;0.16;88.41;101415.19;6070021;28;20037;-72
2022/01/20 07:23:49;;;;;;;18.03;2.20;;;;;;;0.18;88.89;101426.41;6074889;28;20076;-73
2022/01/20 07:26:44;;;;;;;13.20;1.52;;;;;;;0.13;89.27;101421.38;6068632;28;20097;-72
2022/01/20 07:29:40;;;;;;;6.03;1.47;;;;;;;0.12;89.04;101430.09;6066724;28;20480;-73
2022/01/20 07:32:35;;;;;;;4.30;1.20;;;;;;;0.08;89.39;101444.19;6072679;28;20112;-72
2022/01/20 07:35:32;;;;;;;6.38;1.05;;;;;;;0.04;89.67;101446.97;6072834;28;20287;-73
2022/01/20 07:38:27;;;;;;;10.15;1.73;;;;;;;0.01;89.41;101442.72;6074513;28;20049;-72
2022/01/20 07:41:22;;;;;;;9.57;1.57;;;;;;;-0.03;89.56;101446.38;6074938;28;20036;-72
2022/01/20 07:44:19;;;;;;;7.88;1.20;;;;;;;0.04;89.10;101452.16;6075424;28;20033;-73
2022/01/20 07:47:15;;;;;;;4.05;1.15;;;;;;;-0.02;89.34;101448.91;6071603;28;20040;-73
2022/01/20 07:50:10;;;;;;;12.73;1.25;;;;;;;-0.03;88.73;101439.38;6063992;28;20112;-73
2022/01/20 07:53:06;;;;;;;24.40;2.90;;;;;;;0.06;88.63;101450.34;6069409;28;20033;-71
2022/01/20 07:56:02;;;;;;;9.40;1.10;;;;;;;0.07;88.37;101452.91;6063797;28;20277;-72
2022/01/20 07:58:57;;;;;;;5.68;1.30;;;;;;;0.08;87.74;101451.16;6060115;28;20042;-73
2022/01/20 08:01:52;;;;;;;14.40;1.57;;;;;;;0.09;87.58;101461.50;6067854;28;20436;-73
2022/01/20 08:04:47;;;;;;;8.87;1.03;;;;;;;0.10;88.25;101464.97;6065195;28;20033;-73
2022/01/20 08:07:43;;;;;;;21.27;2.03;;;;;;;0.17;87.07;101480.28;6073651;28;20033;-73
2022/01/20 08:10:38;;;;;;;7.43;1.83;;;;;;;0.22;87.12;101487.97;6073805;28;20036;-72
2022/01/20 08:13:33;;;;;;;8.10;1.57;;;;;;;0.23;87.91;101487.03;6067551;28;20399;-71
2022/01/20 08:16:29;;;;;;;16.27;1.97;;;;;;;0.22;87.34;101498.38;6066559;28;20276;-74
2022/01/20 08:19:24;;;;;;;5.60;1.00;;;;;;;0.23;87.10;101490.50;6070948;28;20040;-72
2022/01/20 08:22:19;;;;;;;5.07;1.20;;;;;;;0.29;87.12;101489.38;6062683;28;20384;-73
2022/01/20 08:25:18;;;;;;;3.83;1.27;;;;;;;0.40;86.69;101481.97;6072592;28;20038;-72
2022/01/20 08:28:13;;;;;;;6.88;1.33;;;;;;;0.48;86.95;101479.91;6073034;28;20037;-71
2022/01/20 08:31:09;;;;;;;13.40;1.80;;;;;;;0.57;85.79;101480.34;6062014;28;20121;-72
2022/01/20 08:34:04;;;;;;;9.80;1.33;;;;;;;0.68;85.56;101485.13;6072753;28;20501;-71
2022/01/20 08:36:59;;;;;;;9.70;1.37;;;;;;;0.78;85.43;101502.13;6061958;28;20101;-73
2022/01/20 08:39:55;;;;;;;12.83;1.80;;;;;;;0.70;84.57;101498.97;6073573;28;20276;-72
2022/01/20 08:42:51;;;;;;;8.77;1.60;;;;;;;0.60;84.57;101495.03;6065537;28;20287;-71
2022/01/20 08:45:47;;;;;;;7.65;1.35;;;;;;;0.68;85.14;101490.34;6067840;28;20310;-72
2022/01/20 08:48:42;;;;;;;9.73;1.52;;;;;;;0.82;84.83;101498.44;6072099;28;20460;-72
2022/01/20 08:51:39;;;;;;;18.63;1.87;;;;;;;0.93;83.76;101493.63;6072358;28;20040;-72
2022/01/20 08:54:34;;;;;;;5.53;1.08;;;;;;;1.01;83.91;101488.91;6073275;28;20044;-72
2022/01/20 08:57:30;;;;;;;9.17;1.67;;;;;;;1.11;82.85;101498.03;6072856;28;20107;-71
2022/01/20 09:00:27;;;;;;;5.37;0.97;;;;;;;1.28;83.15;101514.75;6069938;28;20076;-72
2022/01/20 09:03:22;;;;;;;14.75;1.70;;;;;;;1.55;81.15;101511.75;6073641;28;20037;-72
2022/01/20 09:06:18;;;;;;;10.68;1.80;;;;;;;1.86;80.85;101511.19;6066640;28;20520;-72
2022/01/20 09:09:16;;;;;;;11.03;1.50;;;;;;;1.85;81.37;101501.66;6073491;28;20037;-71
2022/01/20 09:15:30;;;;;;;7.97;1.20;;;;;;;0.54;86.57;101490.09;6058348;28;20041;-71
2022/01/20 09:18:26;;;;;;;10.75;1.58;;;;;;;0.48;87.30;101514.69;6072801;28;20037;-71
2022/01/20 09:21:23;;;;;;;15.67;2.00;;;;;;;0.50;86.87;101504.16;6072634;28;20384;-71
2022/01/20 09:24:18;;;;;;;5.70;1.40;;;;;;;0.64;86.25;101488.78;6072762;28;20392;-74
2022/01/20 09:27:14;;;;;;;12.60;1.10;;;;;;;0.86;85.62;101492.19;6072632;28;20041;-72
2022/01/20 09:30:17;;;;;;;5.50;1.77;;;;;;;1.07;85.34;101496.50;6071909;28;20022;-72
2022/01/20 09:33:16;;;;;;;4.10;1.42;;;;;;;1.09;84.90;101499.88;6055127;28;20094;-72
2022/01/20 09:36:12;;;;;;;8.60;1.65;;;;;;;1.03;83.89;101522.81;6069109;28;20060;-73
2022/01/20 09:39:07;;;;;;;6.15;1.50;;;;;;;1.15;83.62;101530.94;6071851;28;20039;-72
2022/01/20 09:42:04;;;;;;;8.77;1.42;;;;;;;1.20;82.99;101526.38;6062834;28;20037;-72
2022/01/20 09:44:59;;;;;;;5.95;1.70;;;;;;;1.24;82.87;101526.25;6072198;28;20041;-72
2022/01/20 09:47:55;;;;;;;11.60;1.77;;;;;;;1.46;82.83;101519.16;6071805;28;20365;-73
2022/01/20 09:50:51;;;;;;;9.80;1.70;;;;;;;1.59;81.62;101521.16;6070661;28;20095;-72
2022/01/20 09:53:47;;;;;;;13.10;1.98;;;;;;;1.71;80.86;101525.00;6070758;28;20065;-73
2022/01/20 09:56:44;;;;;;;3.43;0.87;;;;;;;1.83;80.10;101527.03;6063354;28;20044;-72
2022/01/20 09:59:40;;;;;;;9.93;1.42;;;;;;;1.99;80.11;101517.53;6072090;28;20112;-73
2022/01/20 10:02:35;;;;;;;3.03;0.95;;;;;;;1.87;80.58;101525.97;6070265;28;20384;-73
2022/01/20 10:05:38;;;;;;;8.00;1.35;;;;;;;1.69;80.99;101521.56;6071663;28;20374;-72
2022/01/20 10:08:35;;;;;;;7.85;1.23;;;;;;;1.46;81.58;101530.47;6068808;28;20036;-73
2022/01/20 10:11:30;;;;;;;10.13;1.42;;;;;;;1.37;83.55;101540.47;6059210;28;20060;-73
2022/01/20 10:14:25;;;;;;;5.10;1.30;;;;;;;1.17;84.93;101538.72;6072179;28;20444;-73
2022/01/20 10:17:25;;;;;;;8.18;2.15;;;;;;;0.91;85.97;101529.41;6072081;28;20033;-73
2022/01/20 10:20:20;;;;;;;3.47;1.10;;;;;;;0.71;88.01;101533.75;6071191;28;20105;-72
2022/01/20 10:23:29;;;;;;;9.23;1.13;;;;;;;0.56;88.92;101524.78;6070833;28;20060;-72
2022/01/20 10:26:24;;;;;;;8.38;1.30;;;;;;;0.50;89.56;101540.69;6070860;28;20037;-73
2022/01/20 10:29:20;;;;;;;8.97;1.50;;;;;;;0.41;90.09;101546.25;6069971;28;21321;-73
2022/01/20 10:32:15;;;;;;;12.05;1.25;;;;;;;0.40;90.19;101550.66;6071170;28;20032;-73
2022/01/20 10:35:13;;;;;;;9.10;1.80;;;;;;;0.47;90.00;101565.13;6068984;28;20041;-73
2022/01/20 10:38:17;;;;;;;9.02;1.40;;;;;;;0.56;90.08;101569.16;6062371;28;20080;-73
2022/01/20 10:41:12;;;;;;;8.30;1.63;;;;;;;0.60;90.00;101557.66;6068278;28;20373;-73
2022/01/20 10:44:14;;;;;;;12.63;1.63;;;;;;;0.72;89.56;101562.41;6071263;28;20032;-73
2022/01/20 10:47:18;;;;;;;11.48;2.10;;;;;;;0.96;88.93;101556.16;6072679;28;20260;-73
2022/01/20 10:50:16;;;;;;;5.57;1.35;;;;;;;1.12;88.43;101557.19;6070326;28;20033;-73
2022/01/20 10:53:19;;;;;;;8.85;1.50;;;;;;;1.21;87.68;101550.72;6071511;28;20442;-72
2022/01/20 10:56:14;;;;;;;14.18;2.22;;;;;;;1.19;87.95;101563.88;6062664;28;20045;-73
2022/01/20 10:59:09;;;;;;;6.70;1.77;;;;;;;1.17;89.17;101563.06;6057050;28;20058;-72
2022/01/20 11:02:07;;;;;;;7.30;1.43;;;;;;;1.19;89.43;101563.03;6067634;28;20531;-73
2022/01/20 11:05:03;;;;;;;10.80;1.58;;;;;;;1.16;89.57;101553.56;6065513;28;20034;-72
2022/01/20 11:07:59;;;;;;;7.35;2.22;;;;;;;1.05;89.42;101560.13;6071725;28;20049;-73
2022/01/20 11:10:57;;;;;;;6.35;1.52;;;;;;;1.00;89.66;101549.91;6058693;28;20045;-73
2022/01/20 11:13:52;;;;;;;9.73;2.60;;;;;;;0.98;88.98;101554.31;6073222;28;20040;-72
2022/01/20 11:16:48;;;;;;;12.65;1.90;;;;;;;1.06;88.75;101547.00;6069442;28;20061;-73
2022/01/20 11:19:45;;;;;;;8.50;2.00;;;;;;;1.15;88.18;101540.53;6067463;28;20156;-72
2022/01/20 11:22:57;;;;;;;11.75;2.10;;;;;;;1.17;87.41;101534.34;6072538;28;20394;-72
2022/01/20 11:26:03;;;;;;;8.75;1.80;;;;;;;1.32;86.97;101532.84;6065076;28;20033;-72
2022/01/20 11:29:00;;;;;;;9.90;1.70;;;;;;;1.35;86.04;101529.25;6076187;28;20040;-73
2022/01/20 11:31:56;;;;;;;17.50;2.75;;;;;;;1.37;85.43;101527.41;6073180;28;20057;-73
2022/01/20 11:35:06;;;;;;;16.90;2.63;;;;;;;1.38;84.42;101531.72;6066986;28;20040;-72
2022/01/20 11:38:01;;;;;;;6.68;1.70;;;;;;;1.40;84.56;101517.66;6070847;28;20104;-73
2022/01/20 11:41:00;;;;;;;7.82;1.75;;;;;;;1.46;83.55;101503.47;6061004;28;20030;-72
2022/01/20 11:44:07;;;;;;;15.10;2.05;;;;;;;1.54;83.96;101506.59;6070454;28;20480;-72
2022/01/20 11:47:09;;;;;;;9.73;1.80;;;;;;;1.61;83.16;101523.69;6071015;28;20048;-73
2022/01/20 11:50:04;;;;;;;;;;;;;;;1.65;82.78;101530.50;6066976;28;20032;-72
2022/01/20 11:53:14;;;;;;;8.38;1.45;;;;;;;1.55;82.86;101531.81;6065597;28;19917;-73
2022/01/20 11:56:10;;;;;;;6.55;1.63;;;;;;;1.51;82.96;101519.81;6062090;28;20030;-73
2022/01/20 11:59:08;;;;;;;8.55;1.25;;;;;;;1.44;84.02;101523.63;6070266;28;20374;-72
2022/01/20 12:02:03;;;;;;;12.07;1.30;;;;;;;1.32;84.21;101531.97;6073870;28;20056;-73
2022/01/20 12:05:00;;;;;;;7.80;1.50;;;;;;;1.09;85.56;101520.75;6066547;28;20397;-72
2022/01/20 12:08:18;;;;;;;5.45;1.42;;;;;;;0.70;88.29;101532.06;6066533;28;20321;-73
2022/01/20 12:11:15;;;;;;;9.02;1.58;;;;;;;0.27;89.90;101531.16;6064973;28;20034;-71
2022/01/20 12:14:12;;;;;;;6.93;1.52;;;;;;;0.06;91.35;101528.53;6074731;28;20124;-70
2022/01/20 12:17:14;;;;;;;8.65;1.80;;;;;;;0.00;92.26;101514.84;6074307;28;20047;-71
2022/01/20 12:20:10;;;;;;;8.63;1.50;;;;;;;-0.04;92.68;101513.28;6073619;28;20041;-71
2022/01/20 12:23:06;;;;;;;9.13;1.60;;;;;;;-0.02;94.08;101511.47;6064387;28;20048;-70
2022/01/20 12:26:03;;;;;;;6.80;1.47;;;;;;;0.18;94.29;101496.78;6073446;28;20041;-70
2022/01/20 12:29:09;;;;;;;12.88;1.73;;;;;;;0.28;94.30;101518.97;6073130;28;20029;-70
2022/01/20 12:32:13;;;;;;;5.47;1.25;;;;;;;0.33;94.69;101530.06;6073591;28;20128;-70
2022/01/20 12:35:08;;;;;;;7.53;1.55;;;;;;;0.26;94.11;101528.63;6067412;28;20108;-70
2022/01/20 12:38:25;;;;;;;8.87;1.40;;;;;;;0.16;94.45;101546.41;6074774;28;20037;-70
2022/01/20 12:41:23;;;;;;;5.82;1.20;;;;;;;0.18;94.36;101561.97;6073842;28;20540;-70
2022/01/20 12:44:18;;;;;;;3.47;1.00;;;;;;;0.09;93.92;101557.97;6074389;28;20037;-71
2022/01/20 12:47:17;;;;;;;7.30;1.63;;;;;;;-0.03;94.04;101546.25;6072896;28;20033;-70
2022/01/20 12:50:13;;;;;;;8.50;1.60;;;;;;;-0.09;94.47;101551.72;6072202;28;20038;-70
2022/01/20 12:53:08;;;;;;;11.65;1.50;;;;;;;-0.19;94.71;101549.50;6061773;28;20363;-70
2022/01/20 12:56:05;;;;;;;2.90;1.00;;;;;;;-0.34;94.76;101530.06;6073111;28;20072;-70
2022/01/20 12:59:01;;;;;;;5.43;0.90;;;;;;;-0.33;95.24;101542.22;6069781;28;20390;-72
2022/01/20 13:02:06;;;;;;;8.52;1.02;;;;;;;-0.33;95.57;101544.81;6064725;28;20053;-72
2022/01/20 13:05:04;;;;;;;1.08;0.40;;;;;;;-0.33;95.79;101525.72;6073890;28;20041;-72
2022/01/20 13:08:00;;;;;;;0.65;0.28;;;;;;;-0.34;95.79;101527.47;6069325;28;20046;-71
2022/01/20 13:11:13;;;;;;;2.92;0.40;;;;;;;-0.33;95.73;101525.72;6072680;28;20036;-71
2022/01/20 13:14:10;;;;;;;3.88;0.95;;;;;;;-0.27;96.30;101526.31;6061927;28;20041;-71
2022/01/20 13:17:07;;;;;;;7.55;1.35;;;;;;;-0.22;96.04;101519.19;6074079;28;20079;-70
2022/01/20 13:20:15;;;;;;;10.90;1.65;;;;;;;-0.18;95.94;101501.69;6071350;28;20037;-72
2022/01/20 13:26:17;;;;;;;5.82;1.50;;;;;;;-0.04;96.19;101492.44;6076672;28;20033;-72
2022/01/20 13:29:13;;;;;;;5.90;2.10;;;;;;;0.07;96.20;101494.63;6074040;28;20078;-73
2022/01/20 13:32:08;;;;;;;5.37;1.70;;;;;;;0.09;95.86;101504.97;6052726;28;20104;-73
2022/01/20 13:35:04;;;;;;;7.22;1.48;;;;;;;0.13;95.34;101519.59;6050321;28;20281;-73
2022/01/20 13:38:03;;;;;;;10.50;1.55;;;;;;;0.15;95.31;101517.78;6066795;28;20037;-73
2022/01/20 13:41:10;;;;;;;6.47;1.63;;;;;;;0.00;95.54;101525.28;6074048;28;20033;-72
2022/01/20 13:47:20;;;;;;;9.63;1.70;;;;;;;-0.22;95.44;101523.56;6058249;28;20048;-70
2022/01/20 13:50:23;;;;;;;6.57;1.63;;;;;;;-0.19;95.83;101529.50;6065719;28;20034;-70
2022/01/20 13:53:24;;;;;;;5.13;1.60;;;;;;;-0.19;95.81;101513.84;6072658;28;20053;-70
2022/01/20 13:56:20;;;;;;;7.45;1.40;;;;;;;-0.14;95.83;101500.66;6073613;28;20033;-71
2022/01/20 13:59:15;;;;;;;8.63;1.23;;;;;;;-0.19;95.71;101500.81;6072375;28;20073;-71
2022/01/20 14:02:10;;;;;;;9.43;1.53;;;;;;;-0.19;96.07;101506.03;6055321;28;20046;-70
2022/01/20 14:05:06;;;;;;;5.30;0.70;;;;;;;-0.14;96.12;101501.53;6063432;28;20034;-71
2022/01/20 14:08:04;;;;;;;8.20;1.38;;;;;;;-0.04;95.42;101508.06;6073038;28;20061;-70
2022/01/20 14:10:59;;;;;;;9.18;1.30;;;;;;;0.03;95.93;101528.69;6066521;28;20045;-70
2022/01/20 14:13:54;;;;;;;6.03;0.67;;;;;;;0.12;95.08;101523.09;6071220;28;20037;-70
2022/01/20 14:16:49;;;;;;;2.03;0.83;;;;;;;0.16;94.40;101524.69;6052870;28;20056;-70
2022/01/20 14:19:46;;;;;;;3.60;0.60;;;;;;;0.13;94.08;101519.59;6049682;28;20026;-70
2022/01/20 14:22:41;;;;;;;8.02;0.85;;;;;;;0.14;93.62;101532.56;6068293;28;20049;-70
2022/01/20 14:25:37;;;;;;;6.40;1.20;;;;;;;0.12;93.77;101533.53;6071196;28;20488;-70
2022/01/20 14:28:32;;;;;;;9.33;1.10;;;;;;;0.10;94.19;101531.00;6072982;28;20052;-70
2022/01/20 14:31:28;;;;;;;3.80;0.93;;;;;;;0.09;93.71;101529.28;6063451;28;20283;-70
2022/01/20 14:34:23;;;;;;;7.87;1.07;;;;;;;0.03;93.25;101524.31;6071256;28;20473;-69
2022/01/20 14:37:18;;;;;;;8.30;0.93;;;;;;;-0.03;93.58;101533.22;6070696;28;20519;-70
2022/01/20 14:40:16;;;;;;;1.40;0.70;;;;;;;-0.07;93.12;101534.25;6064511;28;20080;-70
2022/01/20 14:43:12;;;;;;;2.78;0.60;;;;;;;-0.11;93.42;101535.25;6063242;28;20048;-71
2022/01/20 14:46:08;;;;;;;6.57;0.60;;;;;;;-0.18;93.29;101541.63;6073630;28;20037;-71
2022/01/20 14:49:03;;;;;;;4.45;0.57;;;;;;;-0.24;93.35;101536.63;6077026;28;20026;-71